createdAt,value
2023-07-03T00:00:54.646Z,55.53
2023-07-03T00:03:21.872Z,55.73
2023-07-03T00:05:51.665Z,55.69
2023-07-03T00:08:18.745Z,55.02
2023-07-03T00:10:45.850Z,54.77
2023-07-03T00:13:12.629Z,53.75
2023-07-03T00:15:39.439Z,53.87
2023-07-03T00:18:06.591Z,53.61
2023-07-03T00:20:33.389Z,51.94
2023-07-03T00:23:01.428Z,53.32
2023-07-03T00:25:28.553Z,51.58
2023-07-03T00:27:55.373Z,51.75
2023-07-03T00:30:22.477Z,51.25
2023-07-03T00:32:49.265Z,52.97
2023-07-03T00:35:16.081Z,53.54
2023-07-03T00:37:43.243Z,53.86
2023-07-03T00:40:10.947Z,52.86
2023-07-03T00:42:37.697Z,55.66
2023-07-03T00:45:08.704Z,57.92
2023-07-03T00:47:35.458Z,57.95
2023-07-03T00:50:03.497Z,54.58
2023-07-03T00:52:30.280Z,54.19
2023-07-03T00:54:56.986Z,54.96
2023-07-03T00:57:24.087Z,54.73
2023-07-03T00:59:53.392Z,53.63
2023-07-03T01:02:25.714Z,51.61
2023-07-03T01:05:08.599Z,52.54
2023-07-03T01:07:35.455Z,52.24
2023-07-03T01:10:14.154Z,53.56
2023-07-03T01:12:43.111Z,52.97
2023-07-03T01:15:12.482Z,52.59
2023-07-03T01:17:39.391Z,52.45
2023-07-03T01:20:07.593Z,54.71
2023-07-03T01:22:45.647Z,54.59
2023-07-03T01:25:13.461Z,54.92
2023-07-03T01:27:41.410Z,55.27
2023-07-03T01:30:10.282Z,54.62
2023-07-03T01:32:37.128Z,57.37
2023-07-03T01:35:04.321Z,57.28
2023-07-03T01:37:31.458Z,56.21
2023-07-03T01:39:58.198Z,55.88
2023-07-03T01:42:25.940Z,54.50
2023-07-03T01:44:52.743Z,54.25
2023-07-03T01:47:19.495Z,55.22
2023-07-03T01:49:46.279Z,58.31
2023-07-03T01:52:27.408Z,58.09
2023-07-03T01:55:29.457Z,56.71
2023-07-03T01:58:13.931Z,56.73
2023-07-03T02:00:52.659Z,56.28
2023-07-03T02:04:16.057Z,55.96
2023-07-03T02:06:43.449Z,57.19
2023-07-03T02:09:10.177Z,57.28
2023-07-03T02:11:36.968Z,58.52
2023-07-03T02:14:04.026Z,56.07
2023-07-03T02:16:31.090Z,57.95
2023-07-03T02:18:58.553Z,56.05
2023-07-03T02:21:25.691Z,55.84
2023-07-03T02:23:52.464Z,58.69
2023-07-03T02:26:19.193Z,58.65
2023-07-03T02:28:46.338Z,57.70
2023-07-03T02:31:13.605Z,58.71
2023-07-03T02:33:41.953Z,59.20
2023-07-03T02:36:08.661Z,59.32
2023-07-03T02:38:35.396Z,58.65
2023-07-03T02:41:02.402Z,59.19
2023-07-03T02:43:29.148Z,58.18
2023-07-03T02:45:55.859Z,55.65
2023-07-03T02:48:22.600Z,55.67
2023-07-03T02:50:53.924Z,54.78
2023-07-03T02:53:20.696Z,56.58
2023-07-03T02:55:51.229Z,56.90
2023-07-03T02:58:18.529Z,55.75
2023-07-03T03:00:45.301Z,55.50
2023-07-03T03:03:12.125Z,55.37
2023-07-03T03:05:39.046Z,53.55
2023-07-03T03:08:05.830Z,51.95
2023-07-03T03:10:32.571Z,52.83
2023-07-03T03:12:59.334Z,52.59
2023-07-03T03:15:27.215Z,50.58
2023-07-03T03:17:55.789Z,52.96
2023-07-03T03:20:22.606Z,54.73
2023-07-03T03:22:49.846Z,56.42
2023-07-03T03:25:16.620Z,58.43
2023-07-03T03:27:43.362Z,56.62
2023-07-03T03:30:11.855Z,56.95
2023-07-03T03:32:39.124Z,56.06
2023-07-03T03:35:06.334Z,54.53
2023-07-03T03:37:33.079Z,53.77
2023-07-03T03:39:59.789Z,54.79
2023-07-03T03:42:26.620Z,55.09
2023-07-03T03:44:53.359Z,56.84
2023-07-03T03:47:20.180Z,56.27
2023-07-03T03:49:47.550Z,57.41
2023-07-03T03:52:14.353Z,55.41
2023-07-03T03:54:41.205Z,55.64
2023-07-03T03:57:07.943Z,55.60
2023-07-03T03:59:34.661Z,54.88
2023-07-03T04:02:01.520Z,54.04
2023-07-03T04:04:28.549Z,53.21
2023-07-03T04:06:55.309Z,54.20
2023-07-03T04:09:22.060Z,54.59
2023-07-03T04:11:48.809Z,55.44
2023-07-03T04:14:15.519Z,56.32
2023-07-03T04:16:42.395Z,56.48
2023-07-03T04:19:10.189Z,57.10
2023-07-03T04:21:39.458Z,56.91
2023-07-03T04:24:15.829Z,57.02
2023-07-03T04:26:42.700Z,57.03
2023-07-03T04:29:09.494Z,57.65
2023-07-03T04:31:36.352Z,57.86
2023-07-03T04:34:03.174Z,57.37
2023-07-03T04:36:29.968Z,57.39
2023-07-03T04:38:56.750Z,56.06
2023-07-03T04:41:26.558Z,55.71
2023-07-03T04:44:05.298Z,55.77
2023-07-03T04:46:32.662Z,55.35
2023-07-03T04:48:59.488Z,56.10
2023-07-03T04:51:26.626Z,55.95
2023-07-03T04:53:56.333Z,55.71
2023-07-03T04:56:23.065Z,54.84
2023-07-03T04:58:51.281Z,55.25
2023-07-03T05:01:19.610Z,58.29
2023-07-03T05:03:48.494Z,58.58
2023-07-03T05:06:15.713Z,59.28
2023-07-03T05:08:42.849Z,58.39
2023-07-03T05:11:09.759Z,58.25
2023-07-03T05:13:36.653Z,58.95
2023-07-03T05:16:03.716Z,57.73
2023-07-03T05:18:31.067Z,57.32
2023-07-03T05:20:58.211Z,56.09
2023-07-03T05:23:24.939Z,57.45
2023-07-03T05:25:51.808Z,58.33
2023-07-03T05:28:19.389Z,58.79
2023-07-03T05:30:48.156Z,58.60
2023-07-03T05:33:16.243Z,58.58
2023-07-03T05:35:50.531Z,58.51
2023-07-03T05:38:36.194Z,60.47
2023-07-03T05:41:21.844Z,61.43
2023-07-03T05:44:07.230Z,61.54
2023-07-03T05:46:52.856Z,60.41
2023-07-03T05:49:38.446Z,60.93
2023-07-03T05:52:23.926Z,59.36
2023-07-03T05:55:09.890Z,59.10
2023-07-03T05:57:55.922Z,59.53
2023-07-03T06:00:40.982Z,58.69
2023-07-03T06:03:26.762Z,58.70
2023-07-03T06:06:11.915Z,58.16
2023-07-03T06:08:57.807Z,58.40
2023-07-03T06:11:42.974Z,58.22
2023-07-03T06:14:29.604Z,58.24
2023-07-03T06:17:15.693Z,57.21
2023-07-03T06:20:01.398Z,57.12
2023-07-03T06:22:46.686Z,57.42
2023-07-03T06:25:32.111Z,57.54
2023-07-03T06:28:17.366Z,59.58
2023-07-03T06:31:02.985Z,58.42
2023-07-03T06:33:48.274Z,58.76
2023-07-03T06:36:33.663Z,56.42
2023-07-03T06:39:19.066Z,56.19
2023-07-03T06:42:04.853Z,55.04
2023-07-03T06:44:50.606Z,54.97
2023-07-03T06:47:36.565Z,53.24
2023-07-03T06:50:22.276Z,53.68
2023-07-03T06:53:08.184Z,55.15
2023-07-03T06:55:59.103Z,54.48
2023-07-03T06:58:45.227Z,52.02
2023-07-03T07:01:30.969Z,54.22
2023-07-03T07:04:16.598Z,54.58
2023-07-03T07:07:02.245Z,55.13
2023-07-03T07:09:47.749Z,54.40
2023-07-03T07:12:33.263Z,54.14
2023-07-03T07:15:18.793Z,52.96
2023-07-03T07:18:05.499Z,49.61
2023-07-03T07:20:51.079Z,50.25
2023-07-03T07:23:36.512Z,50.66
2023-07-03T07:26:22.337Z,50.68
2023-07-03T07:29:08.129Z,48.50
2023-07-03T07:31:54.850Z,47.25
2023-07-03T07:34:41.955Z,48.41
2023-07-03T07:37:28.042Z,49.06
2023-07-03T07:40:14.513Z,48.74
2023-07-03T07:43:03.188Z,50.21
2023-07-03T07:45:53.550Z,51.05
2023-07-03T07:48:39.681Z,51.56
2023-07-03T07:51:25.234Z,49.35
2023-07-03T07:54:10.578Z,47.77
2023-07-03T07:56:57.277Z,45.15
2023-07-03T07:59:42.396Z,44.11
2023-07-03T08:02:27.925Z,45.60
2023-07-03T08:05:13.636Z,45.98
2023-07-03T08:08:02.090Z,46.26
2023-07-03T08:10:55.219Z,44.88
2023-07-03T08:13:41.337Z,44.24
2023-07-03T08:16:26.969Z,45.77
2023-07-03T08:19:12.680Z,46.75
2023-07-03T08:21:58.881Z,46.27
2023-07-03T08:24:58.620Z,47.87
2023-07-03T08:27:47.613Z,47.79
2023-07-03T08:30:33.087Z,44.08
2023-07-03T08:33:18.840Z,47.73
2023-07-03T08:38:55.608Z,46.89
2023-07-03T08:41:52.227Z,44.37
2023-07-03T08:44:39.025Z,47.13
2023-07-03T08:47:25.429Z,45.32
2023-07-03T08:50:28.027Z,44.85
2023-07-03T08:53:22.218Z,46.28
2023-07-03T08:56:14.368Z,45.52
2023-07-03T08:58:59.522Z,43.00
2023-07-03T09:01:51.665Z,44.49
2023-07-03T09:04:49.498Z,43.11
2023-07-03T09:07:38.602Z,45.76
2023-07-03T09:10:47.288Z,45.31
2023-07-03T09:13:38.816Z,45.88
2023-07-03T09:16:25.679Z,43.42
2023-07-03T09:19:14.712Z,43.29
2023-07-03T09:22:03.267Z,42.96
2023-07-03T09:24:49.115Z,43.34
2023-07-03T09:27:36.621Z,42.35
2023-07-03T09:30:22.326Z,42.35
2023-07-03T09:33:08.063Z,42.20
2023-07-03T09:35:53.880Z,43.59
2023-07-03T09:38:39.512Z,41.91
2023-07-03T09:41:28.846Z,42.64
2023-07-03T09:44:16.301Z,41.81
2023-07-03T09:47:01.395Z,41.87
2023-07-03T09:49:46.914Z,42.23
2023-07-03T09:52:33.284Z,42.24
2023-07-03T09:55:20.417Z,42.74
2023-07-03T09:58:17.526Z,44.47
2023-07-03T10:01:03.541Z,40.95
2023-07-03T10:03:49.303Z,43.27
2023-07-03T10:06:35.166Z,42.46
2023-07-03T10:12:21.766Z,40.97
2023-07-03T10:15:14.860Z,41.82
2023-07-03T10:18:22.082Z,42.14
2023-07-03T10:21:11.486Z,41.75
2023-07-03T10:23:57.225Z,40.38
2023-07-03T10:26:45.470Z,39.95
2023-07-03T10:29:34.298Z,40.79
2023-07-03T10:32:19.827Z,40.86
2023-07-03T10:35:11.294Z,40.54
2023-07-03T10:38:11.329Z,39.42
2023-07-03T10:41:06.330Z,40.58
2023-07-03T10:43:54.794Z,41.95
2023-07-03T10:47:15.790Z,40.03
2023-07-03T10:50:01.564Z,38.80
2023-07-03T10:52:57.794Z,40.46
2023-07-03T10:56:01.953Z,38.65
2023-07-03T10:58:54.830Z,39.68
2023-07-03T11:01:54.961Z,39.32
2023-07-03T11:04:56.212Z,39.05
2023-07-03T11:07:46.260Z,39.31
2023-07-03T11:10:45.346Z,39.23
2023-07-03T11:13:39.824Z,38.89
2023-07-03T11:16:28.364Z,38.46
2023-07-03T11:19:58.583Z,37.94
2023-07-03T11:23:15.882Z,38.98
2023-07-03T11:29:16.646Z,39.48
2023-07-03T11:32:03.319Z,39.21
2023-07-03T11:40:40.544Z,38.78
2023-07-03T11:43:41.521Z,39.02
2023-07-03T11:46:29.829Z,38.10
2023-07-03T11:49:15.482Z,37.74
2023-07-03T11:52:02.562Z,38.27
2023-07-03T11:54:54.830Z,39.21
2023-07-03T11:57:41.870Z,38.85
2023-07-03T12:00:28.319Z,38.83
2023-07-03T12:03:13.273Z,38.93
2023-07-03T12:05:58.960Z,38.69
2023-07-03T12:08:45.556Z,38.24
2023-07-03T12:11:31.642Z,37.01
2023-07-03T12:14:42.825Z,36.79
2023-07-03T12:17:35.920Z,37.79
2023-07-03T12:20:25.406Z,38.03
2023-07-03T12:23:11.158Z,37.46
2023-07-03T12:26:01.596Z,38.00
2023-07-03T12:28:46.985Z,38.38
2023-07-03T12:31:15.108Z,40.11
2023-07-03T12:33:49.593Z,37.65
2023-07-03T12:36:35.175Z,37.29
2023-07-03T12:39:13.910Z,37.58
2023-07-03T12:41:41.013Z,35.76
2023-07-03T12:44:09.260Z,36.52
2023-07-03T12:46:37.683Z,37.09
2023-07-03T12:49:09.915Z,37.67
2023-07-03T12:51:56.498Z,37.26
2023-07-03T12:54:23.439Z,37.68
2023-07-03T12:56:51.059Z,38.58
2023-07-03T12:59:19.527Z,36.42
2023-07-03T13:01:50.623Z,37.00
2023-07-03T13:04:27.990Z,36.97
2023-07-03T13:06:56.008Z,37.02
2023-07-03T13:09:22.768Z,37.02
2023-07-03T13:11:49.978Z,37.75
2023-07-03T13:14:20.757Z,37.56
2023-07-03T13:16:49.819Z,37.66
2023-07-03T13:19:33.887Z,37.21
2023-07-03T13:22:04.199Z,37.08
2023-07-03T13:24:31.005Z,36.76
2023-07-03T13:26:58.313Z,35.77
2023-07-03T13:29:29.930Z,36.66
2023-07-03T13:32:35.118Z,36.06
2023-07-03T13:35:03.732Z,34.89
2023-07-03T13:37:35.246Z,36.00
2023-07-03T13:40:03.473Z,36.23
2023-07-03T13:42:30.946Z,35.00
2023-07-03T13:44:57.742Z,35.07
2023-07-03T13:47:31.859Z,35.27
2023-07-03T13:49:58.615Z,35.04
2023-07-03T13:52:25.448Z,35.08
2023-07-03T13:54:53.975Z,36.78
2023-07-03T13:57:20.829Z,37.40
2023-07-03T13:59:47.682Z,36.27
2023-07-03T14:02:14.488Z,37.18
2023-07-03T14:04:41.760Z,37.00
2023-07-03T14:07:09.306Z,36.12
2023-07-03T14:09:44.368Z,35.97
2023-07-03T14:12:14.007Z,35.31
2023-07-03T14:14:42.288Z,37.36
2023-07-03T14:17:14.032Z,37.08
2023-07-03T14:19:43.720Z,37.11
2023-07-03T14:22:11.903Z,37.30
2023-07-03T14:24:41.681Z,36.89
2023-07-03T14:27:09.230Z,37.91
2023-07-03T14:29:37.331Z,37.17
2023-07-03T14:32:04.739Z,36.79
2023-07-03T14:34:31.605Z,37.38
2023-07-03T14:36:59.420Z,35.91
2023-07-03T14:39:31.336Z,36.96
2023-07-03T14:41:58.196Z,36.53
2023-07-03T14:44:25.355Z,37.21
2023-07-03T14:47:13.676Z,36.26
2023-07-03T14:49:41.282Z,36.25
2023-07-03T14:52:08.719Z,36.54
2023-07-03T14:54:35.886Z,36.10
2023-07-03T14:57:03.037Z,35.72
2023-07-03T14:59:31.443Z,36.45
2023-07-03T15:01:58.274Z,36.45
2023-07-03T15:04:28.577Z,35.70
2023-07-03T15:06:55.605Z,36.20
2023-07-03T15:09:22.382Z,36.58
2023-07-03T15:11:49.205Z,36.69
2023-07-03T15:14:15.972Z,36.46
2023-07-03T15:16:42.852Z,36.02
2023-07-03T15:19:11.108Z,35.11
2023-07-03T15:21:37.927Z,35.76
2023-07-03T15:24:06.227Z,35.66
2023-07-03T15:26:33.876Z,35.18
2023-07-03T15:29:00.867Z,35.76
2023-07-03T15:31:27.865Z,36.48
2023-07-03T15:33:56.369Z,36.45
2023-07-03T15:36:23.162Z,38.02
2023-07-03T15:38:50.178Z,37.23
2023-07-03T15:41:17.391Z,35.23
2023-07-03T15:43:48.814Z,35.81
2023-07-03T15:46:16.320Z,35.64
2023-07-03T15:48:43.746Z,35.62
2023-07-03T15:51:11.479Z,36.19
2023-07-03T15:53:38.222Z,35.41
2023-07-03T15:56:14.993Z,35.42
2023-07-03T15:58:43.336Z,36.07
2023-07-03T16:01:16.764Z,35.12
2023-07-03T16:03:43.839Z,35.77
2023-07-03T16:06:18.764Z,38.30
2023-07-03T16:08:45.661Z,37.14
2023-07-03T16:11:15.982Z,37.10
2023-07-03T16:13:46.160Z,34.96
2023-07-03T16:16:18.454Z,35.22
2023-07-03T16:18:52.925Z,36.43
2023-07-03T16:21:21.629Z,36.85
2023-07-03T16:23:50.064Z,38.01
2023-07-03T16:26:16.785Z,36.73
2023-07-03T16:28:43.522Z,36.12
2023-07-03T16:31:11.333Z,35.36
2023-07-03T16:33:45.422Z,34.20
2023-07-03T16:36:13.714Z,35.37
2023-07-03T16:38:53.484Z,35.36
2023-07-03T16:41:20.771Z,34.94
2023-07-03T16:43:48.444Z,36.75
2023-07-03T16:46:17.193Z,36.81
2023-07-03T16:48:43.953Z,35.54
2023-07-03T16:51:10.707Z,35.07
2023-07-03T16:53:41.347Z,34.53
2023-07-03T16:56:16.061Z,35.11
2023-07-03T16:58:43.703Z,34.61
2023-07-03T17:01:16.467Z,33.18
2023-07-03T17:03:43.461Z,31.93
2023-07-03T17:06:21.055Z,31.33
2023-07-03T17:08:47.857Z,30.93
2023-07-03T17:11:14.650Z,29.95
2023-07-03T17:13:41.468Z,31.76
2023-07-03T17:16:08.413Z,31.83
2023-07-03T17:18:36.555Z,31.24
2023-07-03T17:21:03.388Z,31.12
2023-07-03T17:23:31.391Z,30.31
2023-07-03T17:25:58.256Z,29.79
2023-07-03T17:28:26.278Z,29.52
2023-07-03T17:30:56.013Z,28.51
2023-07-03T17:33:22.789Z,30.05
2023-07-03T17:35:51.116Z,28.89
2023-07-03T17:38:18.041Z,28.33
2023-07-03T17:40:47.431Z,28.74
2023-07-03T17:43:15.110Z,29.58
2023-07-03T17:45:42.563Z,28.69
2023-07-03T17:48:10.433Z,28.29
2023-07-03T17:50:37.765Z,28.72
2023-07-03T17:53:04.571Z,29.45
2023-07-03T17:55:31.802Z,28.78
2023-07-03T17:57:58.779Z,28.65
2023-07-03T18:00:25.901Z,27.91
2023-07-03T18:02:52.979Z,28.20
2023-07-03T18:05:20.148Z,27.99
2023-07-03T18:07:46.853Z,30.96
2023-07-03T18:10:13.602Z,29.28
2023-07-03T18:12:40.361Z,32.05
2023-07-03T18:15:08.616Z,32.13
2023-07-03T18:17:35.380Z,32.59
2023-07-03T18:20:02.116Z,29.68
2023-07-03T18:22:29.608Z,29.58
2023-07-03T18:24:56.409Z,29.21
2023-07-03T18:27:23.195Z,30.45
2023-07-03T18:29:50.029Z,29.96
2023-07-03T18:32:16.766Z,31.42
2023-07-03T18:34:44.910Z,30.56
2023-07-03T18:37:11.677Z,32.20
2023-07-03T18:39:41.432Z,33.61
2023-07-03T18:42:08.844Z,34.29
2023-07-03T18:44:44.867Z,36.87
2023-07-03T18:47:11.832Z,37.52
2023-07-03T18:49:40.468Z,40.67
2023-07-03T18:52:08.265Z,40.15
2023-07-03T18:54:35.008Z,40.54
2023-07-03T18:57:03.805Z,40.78
2023-07-03T18:59:30.917Z,41.72
2023-07-03T19:01:57.653Z,41.81
2023-07-03T19:04:24.817Z,43.09
2023-07-03T19:06:51.619Z,43.28
2023-07-03T19:09:19.706Z,43.53
2023-07-03T19:11:49.323Z,45.18
2023-07-03T19:14:16.427Z,47.08
2023-07-03T19:16:44.651Z,47.19
2023-07-03T19:19:11.983Z,47.18
2023-07-03T19:21:40.336Z,46.50
2023-07-03T19:24:07.422Z,46.57
2023-07-03T19:26:34.222Z,47.77
2023-07-03T19:29:01.274Z,47.74
2023-07-03T19:31:28.514Z,46.85
2023-07-03T19:34:00.441Z,48.70
2023-07-03T19:36:27.233Z,49.38
2023-07-03T19:38:54.468Z,50.99
2023-07-03T19:41:21.395Z,49.53
2023-07-03T19:43:49.107Z,51.62
2023-07-03T19:46:16.634Z,53.77
2023-07-03T19:48:43.838Z,54.59
2023-07-03T19:51:10.572Z,56.83
2023-07-03T19:53:37.713Z,55.95
2023-07-03T19:56:12.932Z,53.32
2023-07-03T19:58:40.152Z,54.41
2023-07-03T20:01:07.192Z,55.35
2023-07-03T20:03:34.368Z,55.09
2023-07-03T20:06:01.178Z,54.81
2023-07-03T20:08:30.482Z,54.33
2023-07-03T20:11:01.817Z,56.78
2023-07-03T20:13:29.732Z,59.80
2023-07-03T20:16:01.052Z,58.54
2023-07-03T20:18:28.188Z,57.99
2023-07-03T20:20:55.270Z,56.27
2023-07-03T20:23:22.556Z,56.40
2023-07-03T20:25:56.297Z,58.11
2023-07-03T20:28:23.781Z,56.84
2023-07-03T20:30:53.538Z,54.61
2023-07-03T20:33:20.303Z,57.93
2023-07-03T20:36:01.925Z,59.51
2023-07-03T20:38:30.648Z,61.23
2023-07-03T20:41:02.586Z,60.39
2023-07-03T20:43:29.699Z,60.86
2023-07-03T20:46:03.767Z,60.60
2023-07-03T20:48:37.136Z,59.90
2023-07-03T20:51:04.532Z,57.40
2023-07-03T20:53:34.088Z,59.53
2023-07-03T20:56:02.660Z,60.44
2023-07-03T20:58:29.780Z,62.18
2023-07-03T21:00:57.054Z,61.17
2023-07-03T21:03:25.061Z,58.48
2023-07-03T21:05:52.498Z,56.58
2023-07-03T21:08:19.459Z,55.65
2023-07-03T21:10:51.288Z,59.17
2023-07-03T21:13:18.082Z,58.45
2023-07-03T21:15:45.049Z,61.77
2023-07-03T21:18:12.183Z,63.23
2023-07-03T21:20:39.640Z,61.96
2023-07-03T21:23:06.727Z,60.33
2023-07-03T21:25:34.265Z,57.71
2023-07-03T21:28:01.060Z,56.48
2023-07-03T21:30:27.839Z,59.98
2023-07-03T21:32:55.238Z,60.28
2023-07-03T21:35:22.334Z,59.03
2023-07-03T21:37:51.948Z,61.89
2023-07-03T21:40:18.683Z,61.81
2023-07-03T21:42:46.362Z,62.25
2023-07-03T21:45:13.084Z,61.86
2023-07-03T21:47:47.023Z,62.20
2023-07-03T21:50:13.769Z,64.26
2023-07-03T21:52:40.536Z,64.53
2023-07-03T21:55:09.205Z,65.01
2023-07-03T21:57:36.471Z,65.51
2023-07-03T22:00:04.001Z,63.13
2023-07-03T22:02:33.366Z,62.70
2023-07-03T22:05:00.418Z,62.06
2023-07-03T22:07:27.632Z,62.23
2023-07-03T22:09:55.045Z,62.77
2023-07-03T22:12:22.481Z,62.99
2023-07-03T22:14:49.784Z,62.29
2023-07-03T22:17:16.517Z,63.41
2023-07-03T22:19:43.600Z,64.76
2023-07-03T22:22:10.910Z,62.13
2023-07-03T22:24:38.486Z,62.28
2023-07-03T22:27:05.851Z,61.72
2023-07-03T22:29:33.040Z,62.58
2023-07-03T22:32:00.189Z,64.83
2023-07-03T22:34:27.304Z,63.42
2023-07-03T22:36:54.091Z,62.59
2023-07-03T22:39:20.813Z,65.40
2023-07-03T22:41:47.617Z,65.13
2023-07-03T22:44:20.585Z,66.25
2023-07-03T22:46:50.568Z,66.73
2023-07-03T22:49:24.413Z,67.60
2023-07-03T22:51:52.050Z,67.42
2023-07-03T22:54:19.644Z,66.52
2023-07-03T22:56:46.766Z,66.12
2023-07-03T22:59:15.393Z,66.49
2023-07-03T23:01:42.679Z,67.38
2023-07-03T23:04:09.425Z,67.00
2023-07-03T23:06:37.266Z,65.44
2023-07-03T23:09:03.998Z,66.42
2023-07-03T23:11:30.697Z,65.78
2023-07-03T23:13:58.900Z,68.02
2023-07-03T23:16:25.909Z,66.99
2023-07-03T23:18:52.725Z,67.89
2023-07-03T23:21:19.437Z,67.96
2023-07-03T23:23:46.146Z,67.61
2023-07-03T23:26:14.217Z,68.57
2023-07-03T23:28:42.057Z,65.31
2023-07-03T23:31:13.706Z,66.38
2023-07-03T23:33:41.054Z,64.51
2023-07-03T23:36:09.645Z,64.34
2023-07-03T23:38:37.215Z,65.99
2023-07-03T23:41:05.692Z,64.96
2023-07-03T23:43:40.447Z,64.19
2023-07-03T23:46:08.193Z,63.97
2023-07-03T23:48:36.822Z,63.39
2023-07-03T23:51:05.523Z,64.55
2023-07-03T23:53:34.054Z,62.49
2023-07-03T23:56:04.417Z,63.04
2023-07-03T23:58:36.559Z,62.42
